sensor_id;sensor_type;location;lat;lon;timestamp;temperature;humidity
21193;DHT22;10754;51.106;7.164;2022-09-09T00:00:18;21.30;1.00
21193;DHT22;10754;51.106;7.164;2022-09-09T00:03:02;21.10;1.00
21193;DHT22;10754;51.106;7.164;2022-09-09T00:05:44;21.20;1.00
21193;DHT22;10754;51.106;7.164;2022-09-09T00:08:43;21.30;1.00
21193;DHT22;10754;51.106;7.164;2022-09-09T00:11:12;21.10;1.00
21193;DHT22;10754;51.106;7.164;2022-09-09T00:13:46;21.10;1.00
21193;DHT22;10754;51.106;7.164;2022-09-09T00:21:54;21.00;1.00
21193;DHT22;10754;51.106;7.164;2022-09-09T00:24:34;21.00;1.00
21193;DHT22;10754;51.106;7.164;2022-09-09T00:27:29;21.00;1.00
21193;DHT22;10754;51.106;7.164;2022-09-09T00:30:12;21.00;1.00
21193;DHT22;10754;51.106;7.164;2022-09-09T00:32:38;21.00;1.00
21193;DHT22;10754;51.106;7.164;2022-09-09T00:35:18;21.00;1.00
21193;DHT22;10754;51.106;7.164;2022-09-09T00:37:48;21.20;1.00
21193;DHT22;10754;51.106;7.164;2022-09-09T00:57:26;21.50;1.00
21193;DHT22;10754;51.106;7.164;2022-09-09T01:02:50;21.60;1.00
21193;DHT22;10754;51.106;7.164;2022-09-09T01:07:49;21.40;1.00
21193;DHT22;10754;51.106;7.164;2022-09-09T01:10:29;21.30;1.00
21193;DHT22;10754;51.106;7.164;2022-09-09T01:13:01;21.40;1.00
21193;DHT22;10754;51.106;7.164;2022-09-09T01:15:30;21.40;1.00
21193;DHT22;10754;51.106;7.164;2022-09-09T01:18:12;21.50;1.00
21193;DHT22;10754;51.106;7.164;2022-09-09T01:20:55;21.60;1.40
21193;DHT22;10754;51.106;7.164;2022-09-09T01:28:38;21.40;1.00
21193;DHT22;10754;51.106;7.164;2022-09-09T01:31:05;21.50;1.40
21193;DHT22;10754;51.106;7.164;2022-09-09T01:33:32;21.40;99.90
21193;DHT22;10754;51.106;7.164;2022-09-09T01:36:03;21.40;99.90
21193;DHT22;10754;51.106;7.164;2022-09-09T01:38:31;21.20;1.00
21193;DHT22;10754;51.106;7.164;2022-09-09T01:40:57;21.20;1.00
21193;DHT22;10754;51.106;7.164;2022-09-09T01:43:24;21.10;1.00
21193;DHT22;10754;51.106;7.164;2022-09-09T01:45:54;21.20;1.00
21193;DHT22;10754;51.106;7.164;2022-09-09T01:48:21;21.10;1.00
21193;DHT22;10754;51.106;7.164;2022-09-09T01:50:47;21.20;1.00
21193;DHT22;10754;51.106;7.164;2022-09-09T01:53:15;21.20;1.00
21193;DHT22;10754;51.106;7.164;2022-09-09T01:55:47;21.10;1.00
21193;DHT22;10754;51.106;7.164;2022-09-09T01:58:51;21.00;1.00
21193;DHT22;10754;51.106;7.164;2022-09-09T02:01:51;21.00;1.00
21193;DHT22;10754;51.106;7.164;2022-09-09T02:04:41;21.10;1.00
21193;DHT22;10754;51.106;7.164;2022-09-09T02:07:36;21.10;1.00
21193;DHT22;10754;51.106;7.164;2022-09-09T02:10:15;21.10;1.00
21193;DHT22;10754;51.106;7.164;2022-09-09T02:12:45;21.10;1.00
21193;DHT22;10754;51.106;7.164;2022-09-09T02:15:45;21.00;1.00
21193;DHT22;10754;51.106;7.164;2022-09-09T02:18:14;20.90;1.00
21193;DHT22;10754;51.106;7.164;2022-09-09T02:20:42;20.80;1.00
21193;DHT22;10754;51.106;7.164;2022-09-09T02:23:09;20.80;1.00
21193;DHT22;10754;51.106;7.164;2022-09-09T02:25:36;20.90;1.00
21193;DHT22;10754;51.106;7.164;2022-09-09T02:28:05;21.00;1.00
21193;DHT22;10754;51.106;7.164;2022-09-09T02:30:34;21.00;1.00
21193;DHT22;10754;51.106;7.164;2022-09-09T02:33:01;21.00;1.00
21193;DHT22;10754;51.106;7.164;2022-09-09T02:35:29;21.00;1.00
21193;DHT22;10754;51.106;7.164;2022-09-09T02:37:57;20.90;1.00
21193;DHT22;10754;51.106;7.164;2022-09-09T02:40:24;20.80;1.00
21193;DHT22;10754;51.106;7.164;2022-09-09T02:42:50;20.90;1.00
21193;DHT22;10754;51.106;7.164;2022-09-09T02:45:19;20.90;1.00
21193;DHT22;10754;51.106;7.164;2022-09-09T02:48:03;20.90;1.00
21193;DHT22;10754;51.106;7.164;2022-09-09T02:50:43;20.80;1.00
21193;DHT22;10754;51.106;7.164;2022-09-09T02:53:27;20.70;1.00
21193;DHT22;10754;51.106;7.164;2022-09-09T02:56:07;20.60;1.00
21193;DHT22;10754;51.106;7.164;2022-09-09T02:58:35;20.70;1.00
21193;DHT22;10754;51.106;7.164;2022-09-09T03:01:01;20.60;1.00
21193;DHT22;10754;51.106;7.164;2022-09-09T03:03:28;20.80;1.00
21193;DHT22;10754;51.106;7.164;2022-09-09T03:05:54;21.00;1.00
21193;DHT22;10754;51.106;7.164;2022-09-09T03:08:20;21.10;1.00
21193;DHT22;10754;51.106;7.164;2022-09-09T03:10:45;21.20;1.00
21193;DHT22;10754;51.106;7.164;2022-09-09T03:13:11;21.10;1.00
21193;DHT22;10754;51.106;7.164;2022-09-09T03:15:38;21.20;1.00
21193;DHT22;10754;51.106;7.164;2022-09-09T03:18:04;21.10;1.00
21193;DHT22;10754;51.106;7.164;2022-09-09T03:20:30;21.10;1.00
21193;DHT22;10754;51.106;7.164;2022-09-09T03:22:56;21.00;1.00
21193;DHT22;10754;51.106;7.164;2022-09-09T03:25:22;20.80;1.00
21193;DHT22;10754;51.106;7.164;2022-09-09T03:27:50;20.80;1.00
21193;DHT22;10754;51.106;7.164;2022-09-09T03:30:18;20.80;1.00
21193;DHT22;10754;51.106;7.164;2022-09-09T03:32:43;20.80;1.00
21193;DHT22;10754;51.106;7.164;2022-09-09T03:35:09;20.80;1.00
21193;DHT22;10754;51.106;7.164;2022-09-09T03:37:35;20.80;1.00
21193;DHT22;10754;51.106;7.164;2022-09-09T03:40:01;20.90;1.00
21193;DHT22;10754;51.106;7.164;2022-09-09T03:42:26;20.90;1.00
21193;DHT22;10754;51.106;7.164;2022-09-09T03:44:52;21.00;1.00
21193;DHT22;10754;51.106;7.164;2022-09-09T03:47:19;20.90;1.00
21193;DHT22;10754;51.106;7.164;2022-09-09T03:49:45;20.90;1.00
21193;DHT22;10754;51.106;7.164;2022-09-09T03:52:11;21.00;1.00
21193;DHT22;10754;51.106;7.164;2022-09-09T03:54:37;21.00;1.00
21193;DHT22;10754;51.106;7.164;2022-09-09T03:57:03;21.00;1.00
21193;DHT22;10754;51.106;7.164;2022-09-09T03:59:28;21.00;1.00
21193;DHT22;10754;51.106;7.164;2022-09-09T04:01:54;21.00;1.00
21193;DHT22;10754;51.106;7.164;2022-09-09T04:04:20;21.10;1.00
21193;DHT22;10754;51.106;7.164;2022-09-09T04:06:46;21.00;1.00
21193;DHT22;10754;51.106;7.164;2022-09-09T04:09:14;21.00;1.00
21193;DHT22;10754;51.106;7.164;2022-09-09T04:11:39;21.10;1.00
21193;DHT22;10754;51.106;7.164;2022-09-09T04:14:05;21.10;1.00
21193;DHT22;10754;51.106;7.164;2022-09-09T04:16:34;21.20;1.00
21193;DHT22;10754;51.106;7.164;2022-09-09T04:19:02;21.00;1.00
21193;DHT22;10754;51.106;7.164;2022-09-09T04:21:29;21.00;1.00
21193;DHT22;10754;51.106;7.164;2022-09-09T04:23:55;21.00;1.00
21193;DHT22;10754;51.106;7.164;2022-09-09T04:26:20;20.90;1.00
21193;DHT22;10754;51.106;7.164;2022-09-09T04:28:46;21.00;1.00
21193;DHT22;10754;51.106;7.164;2022-09-09T04:31:22;21.00;1.00
21193;DHT22;10754;51.106;7.164;2022-09-09T04:33:49;21.00;1.00
21193;DHT22;10754;51.106;7.164;2022-09-09T04:36:15;21.00;1.00
21193;DHT22;10754;51.106;7.164;2022-09-09T04:38:41;21.00;1.00
21193;DHT22;10754;51.106;7.164;2022-09-09T04:41:07;20.80;1.00
21193;DHT22;10754;51.106;7.164;2022-09-09T04:43:33;20.70;1.00
21193;DHT22;10754;51.106;7.164;2022-09-09T04:45:59;20.70;1.00
21193;DHT22;10754;51.106;7.164;2022-09-09T04:48:25;20.80;1.00
21193;DHT22;10754;51.106;7.164;2022-09-09T04:50:59;20.90;1.00
21193;DHT22;10754;51.106;7.164;2022-09-09T04:53:25;20.90;1.00
21193;DHT22;10754;51.106;7.164;2022-09-09T04:55:52;20.80;1.00
21193;DHT22;10754;51.106;7.164;2022-09-09T04:58:18;20.90;1.00
21193;DHT22;10754;51.106;7.164;2022-09-09T05:00:44;20.90;1.00
21193;DHT22;10754;51.106;7.164;2022-09-09T05:03:09;21.00;1.00
21193;DHT22;10754;51.106;7.164;2022-09-09T05:05:35;21.00;1.00
21193;DHT22;10754;51.106;7.164;2022-09-09T05:08:06;21.10;1.00
21193;DHT22;10754;51.106;7.164;2022-09-09T05:10:32;20.80;1.00
21193;DHT22;10754;51.106;7.164;2022-09-09T05:12:58;20.80;1.00
21193;DHT22;10754;51.106;7.164;2022-09-09T05:15:24;21.00;1.00
21193;DHT22;10754;51.106;7.164;2022-09-09T05:17:49;21.10;1.00
21193;DHT22;10754;51.106;7.164;2022-09-09T05:20:17;21.00;1.00
21193;DHT22;10754;51.106;7.164;2022-09-09T05:22:42;20.90;1.00
21193;DHT22;10754;51.106;7.164;2022-09-09T05:25:08;21.00;1.00
21193;DHT22;10754;51.106;7.164;2022-09-09T05:27:34;21.00;1.00
21193;DHT22;10754;51.106;7.164;2022-09-09T05:29:59;20.90;1.00
21193;DHT22;10754;51.106;7.164;2022-09-09T05:32:25;20.90;1.00
21193;DHT22;10754;51.106;7.164;2022-09-09T05:34:51;20.90;1.00
21193;DHT22;10754;51.106;7.164;2022-09-09T05:37:17;21.10;1.00
21193;DHT22;10754;51.106;7.164;2022-09-09T05:39:43;21.00;1.00
21193;DHT22;10754;51.106;7.164;2022-09-09T05:42:09;21.00;1.00
21193;DHT22;10754;51.106;7.164;2022-09-09T05:44:34;21.00;1.00
21193;DHT22;10754;51.106;7.164;2022-09-09T05:47:00;20.80;1.00
21193;DHT22;10754;51.106;7.164;2022-09-09T05:49:25;20.80;1.00
21193;DHT22;10754;51.106;7.164;2022-09-09T05:51:51;20.70;1.00
21193;DHT22;10754;51.106;7.164;2022-09-09T05:54:17;20.80;1.00
21193;DHT22;10754;51.106;7.164;2022-09-09T05:56:42;20.80;1.00
21193;DHT22;10754;51.106;7.164;2022-09-09T05:59:08;20.80;1.00
21193;DHT22;10754;51.106;7.164;2022-09-09T06:01:36;20.90;1.00
21193;DHT22;10754;51.106;7.164;2022-09-09T06:04:05;20.80;1.00
21193;DHT22;10754;51.106;7.164;2022-09-09T06:06:33;20.70;1.00
21193;DHT22;10754;51.106;7.164;2022-09-09T06:09:03;20.70;1.00
21193;DHT22;10754;51.106;7.164;2022-09-09T06:11:32;20.70;1.00
21193;DHT22;10754;51.106;7.164;2022-09-09T06:14:01;20.50;1.00
21193;DHT22;10754;51.106;7.164;2022-09-09T06:16:28;20.50;1.00
21193;DHT22;10754;51.106;7.164;2022-09-09T06:18:55;20.50;1.00
21193;DHT22;10754;51.106;7.164;2022-09-09T06:21:26;20.40;1.00
21193;DHT22;10754;51.106;7.164;2022-09-09T06:23:52;20.60;1.00
21193;DHT22;10754;51.106;7.164;2022-09-09T06:26:21;20.60;1.00
21193;DHT22;10754;51.106;7.164;2022-09-09T06:28:48;20.50;1.00
21193;DHT22;10754;51.106;7.164;2022-09-09T06:31:16;20.50;1.00
21193;DHT22;10754;51.106;7.164;2022-09-09T06:33:53;20.50;1.00
21193;DHT22;10754;51.106;7.164;2022-09-09T06:36:20;20.50;1.00
21193;DHT22;10754;51.106;7.164;2022-09-09T06:38:46;20.50;1.00
21193;DHT22;10754;51.106;7.164;2022-09-09T06:41:13;20.40;1.00
21193;DHT22;10754;51.106;7.164;2022-09-09T06:43:39;20.50;1.00
21193;DHT22;10754;51.106;7.164;2022-09-09T06:46:06;20.50;1.00
21193;DHT22;10754;51.106;7.164;2022-09-09T06:48:33;20.50;1.00
21193;DHT22;10754;51.106;7.164;2022-09-09T06:51:09;20.40;1.00
21193;DHT22;10754;51.106;7.164;2022-09-09T06:53:37;20.40;1.00
21193;DHT22;10754;51.106;7.164;2022-09-09T06:56:27;20.50;1.00
21193;DHT22;10754;51.106;7.164;2022-09-09T06:58:55;20.40;1.00
21193;DHT22;10754;51.106;7.164;2022-09-09T07:01:23;20.50;1.00
21193;DHT22;10754;51.106;7.164;2022-09-09T07:03:54;20.60;1.00
21193;DHT22;10754;51.106;7.164;2022-09-09T07:06:24;20.50;1.00
21193;DHT22;10754;51.106;7.164;2022-09-09T07:09:04;20.50;1.00
21193;DHT22;10754;51.106;7.164;2022-09-09T07:11:40;20.60;1.00
21193;DHT22;10754;51.106;7.164;2022-09-09T07:14:07;20.50;1.00
21193;DHT22;10754;51.106;7.164;2022-09-09T07:16:33;20.60;1.00
21193;DHT22;10754;51.106;7.164;2022-09-09T07:19:02;20.60;1.00
21193;DHT22;10754;51.106;7.164;2022-09-09T07:21:29;20.70;1.00
21193;DHT22;10754;51.106;7.164;2022-09-09T07:23:55;21.00;1.00
21193;DHT22;10754;51.106;7.164;2022-09-09T07:26:24;21.10;1.00
21193;DHT22;10754;51.106;7.164;2022-09-09T07:28:50;21.20;1.00
21193;DHT22;10754;51.106;7.164;2022-09-09T07:31:19;21.50;1.00
21193;DHT22;10754;51.106;7.164;2022-09-09T07:33:45;21.30;1.00
21193;DHT22;10754;51.106;7.164;2022-09-09T07:36:23;21.20;1.00
21193;DHT22;10754;51.106;7.164;2022-09-09T07:38:51;21.20;1.00
21193;DHT22;10754;51.106;7.164;2022-09-09T07:41:24;21.30;1.00
21193;DHT22;10754;51.106;7.164;2022-09-09T07:43:50;21.10;1.00
21193;DHT22;10754;51.106;7.164;2022-09-09T07:46:18;21.10;1.00
21193;DHT22;10754;51.106;7.164;2022-09-09T07:48:52;21.30;1.00
21193;DHT22;10754;51.106;7.164;2022-09-09T07:51:21;21.30;1.00
21193;DHT22;10754;51.106;7.164;2022-09-09T07:53:48;21.10;1.00
21193;DHT22;10754;51.106;7.164;2022-09-09T07:56:15;21.10;1.00
21193;DHT22;10754;51.106;7.164;2022-09-09T07:58:47;21.00;1.00
21193;DHT22;10754;51.106;7.164;2022-09-09T08:03:43;21.20;1.00
21193;DHT22;10754;51.106;7.164;2022-09-09T08:06:10;21.30;1.00
21193;DHT22;10754;51.106;7.164;2022-09-09T08:08:36;21.40;1.40
21193;DHT22;10754;51.106;7.164;2022-09-09T08:11:12;21.70;99.90
21193;DHT22;10754;51.106;7.164;2022-09-09T08:13:39;21.50;99.90
21193;DHT22;10754;51.106;7.164;2022-09-09T08:16:15;21.70;99.90
21193;DHT22;10754;51.106;7.164;2022-09-09T08:18:41;21.30;99.90
21193;DHT22;10754;51.106;7.164;2022-09-09T08:21:12;21.30;99.90
21193;DHT22;10754;51.106;7.164;2022-09-09T08:23:40;21.30;1.00
21193;DHT22;10754;51.106;7.164;2022-09-09T08:26:17;21.00;1.00
21193;DHT22;10754;51.106;7.164;2022-09-09T08:28:43;21.30;99.90
21193;DHT22;10754;51.106;7.164;2022-09-09T08:31:16;21.20;99.90
21193;DHT22;10754;51.106;7.164;2022-09-09T08:33:43;21.10;1.40
21193;DHT22;10754;51.106;7.164;2022-09-09T08:36:13;21.40;99.90
21193;DHT22;10754;51.106;7.164;2022-09-09T08:38:41;21.70;99.90
21193;DHT22;10754;51.106;7.164;2022-09-09T08:47:01;21.50;99.90
21193;DHT22;10754;51.106;7.164;2022-09-09T08:50:11;21.50;99.90
21193;DHT22;10754;51.106;7.164;2022-09-09T08:53:02;21.90;99.90
21193;DHT22;10754;51.106;7.164;2022-09-09T08:55:54;21.90;99.90
21193;DHT22;10754;51.106;7.164;2022-09-09T08:58:33;21.80;99.90
21193;DHT22;10754;51.106;7.164;2022-09-09T09:09:12;21.90;99.90
21193;DHT22;10754;51.106;7.164;2022-09-09T09:11:45;21.70;99.90
21193;DHT22;10754;51.106;7.164;2022-09-09T09:14:22;21.70;99.90
21193;DHT22;10754;51.106;7.164;2022-09-09T09:17:00;21.80;99.90
21193;DHT22;10754;51.106;7.164;2022-09-09T09:19:27;22.20;99.90
21193;DHT22;10754;51.106;7.164;2022-09-09T09:24:40;22.20;99.90
21193;DHT22;10754;51.106;7.164;2022-09-09T09:27:13;22.20;99.90
21193;DHT22;10754;51.106;7.164;2022-09-09T09:29:40;22.40;99.90
21193;DHT22;10754;51.106;7.164;2022-09-09T09:32:11;22.40;99.90
21193;DHT22;10754;51.106;7.164;2022-09-09T09:34:38;22.40;99.90
21193;DHT22;10754;51.106;7.164;2022-09-09T09:37:15;22.20;99.90
21193;DHT22;10754;51.106;7.164;2022-09-09T09:39:43;22.20;99.90
21193;DHT22;10754;51.106;7.164;2022-09-09T09:42:11;21.90;99.90
21193;DHT22;10754;51.106;7.164;2022-09-09T09:44:40;22.10;99.90
21193;DHT22;10754;51.106;7.164;2022-09-09T09:47:11;22.20;99.90
21193;DHT22;10754;51.106;7.164;2022-09-09T09:49:37;22.20;99.90
21193;DHT22;10754;51.106;7.164;2022-09-09T09:52:04;22.00;99.90
21193;DHT22;10754;51.106;7.164;2022-09-09T09:54:34;22.00;99.90
21193;DHT22;10754;51.106;7.164;2022-09-09T09:57:13;22.10;99.90
21193;DHT22;10754;51.106;7.164;2022-09-09T09:59:40;21.90;99.90
21193;DHT22;10754;51.106;7.164;2022-09-09T10:04:45;22.30;99.90
21193;DHT22;10754;51.106;7.164;2022-09-09T10:07:20;22.10;99.90
21193;DHT22;10754;51.106;7.164;2022-09-09T10:09:54;22.30;99.90
21193;DHT22;10754;51.106;7.164;2022-09-09T10:18:02;22.40;99.90
21193;DHT22;10754;51.106;7.164;2022-09-09T10:20:40;22.70;99.90
21193;DHT22;10754;51.106;7.164;2022-09-09T10:31:44;23.00;99.90
21193;DHT22;10754;51.106;7.164;2022-09-09T10:36:44;23.00;99.90
21193;DHT22;10754;51.106;7.164;2022-09-09T10:39:36;23.10;99.90
21193;DHT22;10754;51.106;7.164;2022-09-09T10:42:08;23.10;99.90
21193;DHT22;10754;51.106;7.164;2022-09-09T10:50:05;23.40;99.90
21193;DHT22;10754;51.106;7.164;2022-09-09T10:55:19;23.00;99.90
21193;DHT22;10754;51.106;7.164;2022-09-09T10:57:53;23.00;99.90
21193;DHT22;10754;51.106;7.164;2022-09-09T11:00:24;23.10;99.90
21193;DHT22;10754;51.106;7.164;2022-09-09T11:02:58;23.30;99.90
21193;DHT22;10754;51.106;7.164;2022-09-09T11:05:45;23.20;99.90
21193;DHT22;10754;51.106;7.164;2022-09-09T11:08:20;23.20;99.90
21193;DHT22;10754;51.106;7.164;2022-09-09T11:10:59;23.20;99.90
21193;DHT22;10754;51.106;7.164;2022-09-09T11:16:39;23.60;99.90
21193;DHT22;10754;51.106;7.164;2022-09-09T11:21:53;23.80;99.90
21193;DHT22;10754;51.106;7.164;2022-09-09T11:24:38;24.00;99.90
21193;DHT22;10754;51.106;7.164;2022-09-09T11:30:14;24.00;99.90
21193;DHT22;10754;51.106;7.164;2022-09-09T11:32:57;23.90;99.90
21193;DHT22;10754;51.106;7.164;2022-09-09T11:36:01;23.80;99.90
21193;DHT22;10754;51.106;7.164;2022-09-09T11:38:39;23.60;99.90
21193;DHT22;10754;51.106;7.164;2022-09-09T11:41:09;23.20;99.90
21193;DHT22;10754;51.106;7.164;2022-09-09T11:43:44;23.30;99.90
21193;DHT22;10754;51.106;7.164;2022-09-09T11:46:12;23.10;99.90
21193;DHT22;10754;51.106;7.164;2022-09-09T11:48:56;23.00;99.90
21193;DHT22;10754;51.106;7.164;2022-09-09T11:51:27;23.00;99.90
21193;DHT22;10754;51.106;7.164;2022-09-09T11:56:43;23.20;99.90
21193;DHT22;10754;51.106;7.164;2022-09-09T11:59:27;23.40;99.90
21193;DHT22;10754;51.106;7.164;2022-09-09T12:01:59;23.40;99.90
21193;DHT22;10754;51.106;7.164;2022-09-09T12:04:32;23.40;99.90
21193;DHT22;10754;51.106;7.164;2022-09-09T12:09:46;23.20;99.90
21193;DHT22;10754;51.106;7.164;2022-09-09T12:17:28;23.20;99.90
21193;DHT22;10754;51.106;7.164;2022-09-09T12:30:41;22.90;99.90
21193;DHT22;10754;51.106;7.164;2022-09-09T12:33:17;23.00;99.90
21193;DHT22;10754;51.106;7.164;2022-09-09T12:35:46;22.70;99.90
21193;DHT22;10754;51.106;7.164;2022-09-09T12:38:30;22.80;99.90
21193;DHT22;10754;51.106;7.164;2022-09-09T12:40:58;22.90;99.90
21193;DHT22;10754;51.106;7.164;2022-09-09T12:43:25;22.90;99.90
21193;DHT22;10754;51.106;7.164;2022-09-09T12:45:55;22.70;99.90
21193;DHT22;10754;51.106;7.164;2022-09-09T12:48:32;22.90;99.90
21193;DHT22;10754;51.106;7.164;2022-09-09T12:50:58;22.80;99.90
21193;DHT22;10754;51.106;7.164;2022-09-09T12:53:30;22.90;99.90
21193;DHT22;10754;51.106;7.164;2022-09-09T12:56:04;23.00;99.90
21193;DHT22;10754;51.106;7.164;2022-09-09T12:58:31;23.10;99.90
21193;DHT22;10754;51.106;7.164;2022-09-09T13:00:58;23.10;99.90
21193;DHT22;10754;51.106;7.164;2022-09-09T13:03:26;23.40;99.90
21193;DHT22;10754;51.106;7.164;2022-09-09T13:05:53;23.40;99.90
21193;DHT22;10754;51.106;7.164;2022-09-09T13:08:19;22.90;99.90
21193;DHT22;10754;51.106;7.164;2022-09-09T13:11:01;22.70;99.90
21193;DHT22;10754;51.106;7.164;2022-09-09T13:13:38;22.80;99.90
21193;DHT22;10754;51.106;7.164;2022-09-09T13:16:06;22.40;99.90
21193;DHT22;10754;51.106;7.164;2022-09-09T13:18:39;22.80;99.90
21193;DHT22;10754;51.106;7.164;2022-09-09T13:21:05;23.00;99.90
21193;DHT22;10754;51.106;7.164;2022-09-09T13:23:34;23.30;99.90
21193;DHT22;10754;51.106;7.164;2022-09-09T13:26:23;23.40;99.90
21193;DHT22;10754;51.106;7.164;2022-09-09T13:28:49;23.50;99.90
21193;DHT22;10754;51.106;7.164;2022-09-09T13:31:29;23.30;99.90
21193;DHT22;10754;51.106;7.164;2022-09-09T13:33:55;23.20;99.90
21193;DHT22;10754;51.106;7.164;2022-09-09T13:36:32;23.00;99.90
21193;DHT22;10754;51.106;7.164;2022-09-09T13:39:01;23.00;99.90
21193;DHT22;10754;51.106;7.164;2022-09-09T13:41:44;23.00;99.90
21193;DHT22;10754;51.106;7.164;2022-09-09T13:44:27;23.00;99.90
21193;DHT22;10754;51.106;7.164;2022-09-09T13:47:21;22.90;99.90
21193;DHT22;10754;51.106;7.164;2022-09-09T13:49:48;22.80;99.90
21193;DHT22;10754;51.106;7.164;2022-09-09T13:52:16;22.70;99.90
21193;DHT22;10754;51.106;7.164;2022-09-09T13:54:50;22.70;99.90
21193;DHT22;10754;51.106;7.164;2022-09-09T13:57:17;22.50;1.00
21193;DHT22;10754;51.106;7.164;2022-09-09T13:59:44;21.70;1.00
21193;DHT22;10754;51.106;7.164;2022-09-09T14:02:09;21.30;1.00
21193;DHT22;10754;51.106;7.164;2022-09-09T14:04:35;21.40;1.00
21193;DHT22;10754;51.106;7.164;2022-09-09T14:07:01;21.40;1.00
21193;DHT22;10754;51.106;7.164;2022-09-09T14:09:27;21.50;1.00
21193;DHT22;10754;51.106;7.164;2022-09-09T14:11:52;21.50;1.00
21193;DHT22;10754;51.106;7.164;2022-09-09T14:14:18;21.60;1.00
21193;DHT22;10754;51.106;7.164;2022-09-09T14:16:43;21.60;1.00
21193;DHT22;10754;51.106;7.164;2022-09-09T14:19:09;21.60;1.00
21193;DHT22;10754;51.106;7.164;2022-09-09T14:21:35;21.60;1.00
21193;DHT22;10754;51.106;7.164;2022-09-09T14:24:01;21.60;1.00
21193;DHT22;10754;51.106;7.164;2022-09-09T14:26:26;21.60;1.00
21193;DHT22;10754;51.106;7.164;2022-09-09T14:28:54;21.50;1.00
21193;DHT22;10754;51.106;7.164;2022-09-09T14:31:19;21.50;1.00
21193;DHT22;10754;51.106;7.164;2022-09-09T14:33:45;21.50;1.00
21193;DHT22;10754;51.106;7.164;2022-09-09T14:36:11;21.20;1.00
21193;DHT22;10754;51.106;7.164;2022-09-09T14:38:38;21.20;1.00
21193;DHT22;10754;51.106;7.164;2022-09-09T14:41:05;21.20;1.00
21193;DHT22;10754;51.106;7.164;2022-09-09T14:43:31;20.70;1.00
21193;DHT22;10754;51.106;7.164;2022-09-09T14:46:04;20.60;1.00
21193;DHT22;10754;51.106;7.164;2022-09-09T14:48:30;20.60;1.00
21193;DHT22;10754;51.106;7.164;2022-09-09T14:50:56;20.60;1.00
21193;DHT22;10754;51.106;7.164;2022-09-09T14:53:22;20.70;1.00
21193;DHT22;10754;51.106;7.164;2022-09-09T14:55:47;20.70;1.00
21193;DHT22;10754;51.106;7.164;2022-09-09T14:58:13;20.70;1.00
21193;DHT22;10754;51.106;7.164;2022-09-09T15:00:39;20.60;1.00
21193;DHT22;10754;51.106;7.164;2022-09-09T15:03:04;20.70;1.00
21193;DHT22;10754;51.106;7.164;2022-09-09T15:05:30;20.60;1.00
21193;DHT22;10754;51.106;7.164;2022-09-09T15:07:57;20.60;1.00
21193;DHT22;10754;51.106;7.164;2022-09-09T15:10:24;20.50;1.00
21193;DHT22;10754;51.106;7.164;2022-09-09T15:12:49;20.50;1.00
21193;DHT22;10754;51.106;7.164;2022-09-09T15:15:15;20.40;1.00
21193;DHT22;10754;51.106;7.164;2022-09-09T15:17:40;20.40;1.00
21193;DHT22;10754;51.106;7.164;2022-09-09T15:20:06;20.40;1.00
21193;DHT22;10754;51.106;7.164;2022-09-09T15:22:32;20.40;1.00
21193;DHT22;10754;51.106;7.164;2022-09-09T15:24:59;20.40;1.00
21193;DHT22;10754;51.106;7.164;2022-09-09T15:27:24;20.40;1.00
21193;DHT22;10754;51.106;7.164;2022-09-09T15:29:50;20.50;1.00
21193;DHT22;10754;51.106;7.164;2022-09-09T15:32:17;20.50;1.00
21193;DHT22;10754;51.106;7.164;2022-09-09T15:34:42;20.40;1.00
21193;DHT22;10754;51.106;7.164;2022-09-09T15:37:10;20.40;1.00
21193;DHT22;10754;51.106;7.164;2022-09-09T15:39:38;20.40;1.00
21193;DHT22;10754;51.106;7.164;2022-09-09T15:42:04;20.30;1.00
21193;DHT22;10754;51.106;7.164;2022-09-09T15:44:30;20.30;1.00
21193;DHT22;10754;51.106;7.164;2022-09-09T15:47:03;20.40;1.00
21193;DHT22;10754;51.106;7.164;2022-09-09T15:49:28;20.50;1.00
21193;DHT22;10754;51.106;7.164;2022-09-09T15:51:56;20.50;1.00
21193;DHT22;10754;51.106;7.164;2022-09-09T15:54:34;20.50;1.00
21193;DHT22;10754;51.106;7.164;2022-09-09T15:57:02;20.50;1.00
21193;DHT22;10754;51.106;7.164;2022-09-09T15:59:29;20.50;1.00
21193;DHT22;10754;51.106;7.164;2022-09-09T16:01:56;20.60;1.00
21193;DHT22;10754;51.106;7.164;2022-09-09T16:04:23;20.60;1.00
21193;DHT22;10754;51.106;7.164;2022-09-09T16:06:50;20.60;1.00
21193;DHT22;10754;51.106;7.164;2022-09-09T16:09:17;20.60;1.00
21193;DHT22;10754;51.106;7.164;2022-09-09T16:11:42;20.50;1.00
21193;DHT22;10754;51.106;7.164;2022-09-09T16:14:08;20.60;1.00
21193;DHT22;10754;51.106;7.164;2022-09-09T16:16:34;20.60;1.00
21193;DHT22;10754;51.106;7.164;2022-09-09T16:19:06;20.70;1.00
21193;DHT22;10754;51.106;7.164;2022-09-09T16:21:35;20.70;1.00
21193;DHT22;10754;51.106;7.164;2022-09-09T16:24:02;20.60;1.00
21193;DHT22;10754;51.106;7.164;2022-09-09T16:26:30;20.60;1.00
21193;DHT22;10754;51.106;7.164;2022-09-09T16:28:56;20.70;1.00
21193;DHT22;10754;51.106;7.164;2022-09-09T16:31:24;20.60;1.00
21193;DHT22;10754;51.106;7.164;2022-09-09T16:33:51;20.70;1.00
21193;DHT22;10754;51.106;7.164;2022-09-09T16:36:19;21.10;1.00
21193;DHT22;10754;51.106;7.164;2022-09-09T16:38:45;20.80;1.00
21193;DHT22;10754;51.106;7.164;2022-09-09T16:41:12;20.70;1.00
21193;DHT22;10754;51.106;7.164;2022-09-09T16:43:38;20.60;1.00
21193;DHT22;10754;51.106;7.164;2022-09-09T16:46:17;20.50;1.00
21193;DHT22;10754;51.106;7.164;2022-09-09T16:48:44;20.60;1.00
21193;DHT22;10754;51.106;7.164;2022-09-09T16:51:18;20.80;1.00
21193;DHT22;10754;51.106;7.164;2022-09-09T16:53:44;20.80;1.00
21193;DHT22;10754;51.106;7.164;2022-09-09T16:56:13;20.90;1.00
21193;DHT22;10754;51.106;7.164;2022-09-09T16:58:39;20.80;1.00
21193;DHT22;10754;51.106;7.164;2022-09-09T17:01:05;20.70;1.00
21193;DHT22;10754;51.106;7.164;2022-09-09T17:03:31;20.70;1.00
21193;DHT22;10754;51.106;7.164;2022-09-09T17:05:58;20.60;1.00
21193;DHT22;10754;51.106;7.164;2022-09-09T17:08:30;20.40;1.00
21193;DHT22;10754;51.106;7.164;2022-09-09T17:10:56;20.50;1.00
21193;DHT22;10754;51.106;7.164;2022-09-09T17:13:22;20.40;1.00
21193;DHT22;10754;51.106;7.164;2022-09-09T17:15:47;20.30;1.00
21193;DHT22;10754;51.106;7.164;2022-09-09T17:18:13;20.30;1.00
21193;DHT22;10754;51.106;7.164;2022-09-09T17:20:40;20.30;1.00
21193;DHT22;10754;51.106;7.164;2022-09-09T17:23:06;20.40;1.00
21193;DHT22;10754;51.106;7.164;2022-09-09T17:25:32;20.40;1.00
21193;DHT22;10754;51.106;7.164;2022-09-09T17:27:58;20.40;1.00
21193;DHT22;10754;51.106;7.164;2022-09-09T17:30:23;20.30;1.00
21193;DHT22;10754;51.106;7.164;2022-09-09T17:32:49;20.20;1.00
21193;DHT22;10754;51.106;7.164;2022-09-09T17:35:15;20.20;1.00
21193;DHT22;10754;51.106;7.164;2022-09-09T17:37:40;20.20;1.00
21193;DHT22;10754;51.106;7.164;2022-09-09T17:40:07;20.10;1.00
21193;DHT22;10754;51.106;7.164;2022-09-09T17:42:33;20.20;1.00
21193;DHT22;10754;51.106;7.164;2022-09-09T17:44:59;20.20;1.00
21193;DHT22;10754;51.106;7.164;2022-09-09T17:47:25;20.50;1.00
21193;DHT22;10754;51.106;7.164;2022-09-09T17:49:51;20.50;1.00